createdAt,value
2023-05-14T00:00:51.914Z,11.83
2023-05-14T00:03:53.872Z,12.70
2023-05-14T00:06:55.834Z,12.95
2023-05-14T00:09:58.428Z,11.95
2023-05-14T00:13:04.683Z,12.05
2023-05-14T00:16:06.587Z,11.77
2023-05-14T00:19:08.603Z,14.65
2023-05-14T00:22:10.724Z,10.80
2023-05-14T00:25:12.564Z,12.52
2023-05-14T00:28:14.395Z,12.65
2023-05-14T00:31:16.271Z,12.60
2023-05-14T00:34:18.161Z,11.63
2023-05-14T00:37:19.995Z,12.93
2023-05-14T00:40:23.897Z,11.98
2023-05-14T00:43:26.231Z,13.30
2023-05-14T00:46:28.159Z,12.10
2023-05-14T00:49:30.005Z,11.50
2023-05-14T00:52:32.276Z,11.23
2023-05-14T00:55:34.102Z,10.35
2023-05-14T00:58:39.074Z,11.23
2023-05-14T01:01:40.832Z,9.63
2023-05-14T01:04:42.650Z,10.55
2023-05-14T01:07:59.677Z,10.48
2023-05-14T01:11:14.114Z,12.90
2023-05-14T01:14:41.708Z,11.50
2023-05-14T01:17:48.961Z,10.03
2023-05-14T01:20:52.859Z,10.05
2023-05-14T01:23:54.691Z,9.88
2023-05-14T01:26:58.806Z,9.57
2023-05-14T01:30:29.118Z,9.82
2023-05-14T01:33:30.945Z,9.63
2023-05-14T01:36:33.329Z,10.98
2023-05-14T01:39:38.041Z,10.35
2023-05-14T01:42:39.816Z,10.48
2023-05-14T01:45:41.767Z,9.68
2023-05-14T01:48:43.602Z,10.80
2023-05-14T01:51:45.488Z,10.48
2023-05-14T01:54:51.012Z,10.02
2023-05-14T01:57:53.278Z,10.05
2023-05-14T02:00:55.044Z,12.77
2023-05-14T02:03:57.436Z,9.97
2023-05-14T02:06:59.391Z,10.68
2023-05-14T02:10:01.336Z,10.27
2023-05-14T02:13:04.033Z,9.80
2023-05-14T02:16:06.400Z,11.95
2023-05-14T02:19:08.542Z,10.00
2023-05-14T02:22:10.598Z,9.95
2023-05-14T02:25:12.658Z,11.23
2023-05-14T02:28:14.590Z,9.30
2023-05-14T02:31:19.255Z,11.55
2023-05-14T02:34:21.327Z,10.93
2023-05-14T02:37:23.349Z,12.18
2023-05-14T02:40:25.814Z,10.73
2023-05-14T02:43:27.877Z,10.45
2023-05-14T02:46:31.350Z,10.15
2023-05-14T02:49:33.268Z,12.63
2023-05-14T02:52:35.110Z,10.27
2023-05-14T02:55:36.983Z,9.40
2023-05-14T02:58:38.794Z,10.85
2023-05-14T03:01:40.735Z,10.07
2023-05-14T03:04:43.007Z,10.37
2023-05-14T03:07:44.815Z,9.82
2023-05-14T03:10:46.721Z,10.82
2023-05-14T03:13:48.629Z,10.63
2023-05-14T03:16:50.463Z,14.02
2023-05-14T03:19:52.458Z,11.03
2023-05-14T03:22:54.824Z,9.85
2023-05-14T03:25:56.906Z,9.98
2023-05-14T03:28:58.840Z,10.65
2023-05-14T03:32:00.782Z,11.10
2023-05-14T03:35:02.562Z,11.33
2023-05-14T03:38:04.449Z,12.23
2023-05-14T03:41:06.307Z,10.88
2023-05-14T03:44:08.104Z,10.45
2023-05-14T03:47:09.964Z,10.35
2023-05-14T03:50:11.778Z,11.37
2023-05-14T03:53:13.629Z,10.82
2023-05-14T03:56:15.518Z,11.10
2023-05-14T03:59:17.364Z,12.00
2023-05-14T04:02:19.223Z,11.25
2023-05-14T04:05:21.143Z,10.70
2023-05-14T04:08:22.991Z,11.50
2023-05-14T04:11:24.797Z,12.18
2023-05-14T04:14:26.690Z,10.75
2023-05-14T04:17:28.620Z,11.77
2023-05-14T04:20:30.497Z,12.73
2023-05-14T04:23:32.357Z,13.07
2023-05-14T04:26:34.169Z,10.93
2023-05-14T04:29:35.934Z,11.70
2023-05-14T04:32:38.313Z,11.10
2023-05-14T04:35:40.136Z,9.43
2023-05-14T04:38:42.291Z,10.95
2023-05-14T04:41:44.129Z,12.07
2023-05-14T04:44:46.341Z,12.43
2023-05-14T04:47:48.181Z,10.82
2023-05-14T04:50:50.082Z,10.10
2023-05-14T04:53:52.037Z,12.38
2023-05-14T04:56:55.994Z,12.15
2023-05-14T04:59:57.847Z,11.50
2023-05-14T05:02:59.717Z,10.52
2023-05-14T05:06:01.552Z,11.03
2023-05-14T05:09:03.360Z,10.52
2023-05-14T05:12:05.678Z,11.02
2023-05-14T05:15:08.258Z,10.57
2023-05-14T05:18:10.136Z,10.98
2023-05-14T05:21:11.961Z,10.67
2023-05-14T05:24:13.985Z,12.02
2023-05-14T05:27:16.012Z,10.65
2023-05-14T05:30:17.869Z,11.07
2023-05-14T05:33:19.980Z,12.02
2023-05-14T05:36:21.827Z,13.27
2023-05-14T05:39:23.629Z,10.05
2023-05-14T05:42:26.206Z,13.35
2023-05-14T05:45:28.111Z,13.43
2023-05-14T05:48:33.134Z,11.93
2023-05-14T05:51:34.952Z,11.37
2023-05-14T05:54:36.868Z,12.35
2023-05-14T05:57:38.713Z,12.63
2023-05-14T06:00:40.509Z,14.35
2023-05-14T06:03:46.981Z,12.63
2023-05-14T06:06:50.383Z,13.70
2023-05-14T06:09:52.183Z,12.65
2023-05-14T06:12:54.111Z,11.55
2023-05-14T06:15:56.002Z,14.20
2023-05-14T06:19:01.689Z,13.50
2023-05-14T06:22:03.787Z,10.97
2023-05-14T06:25:05.971Z,12.23
2023-05-14T06:28:07.871Z,12.05
2023-05-14T06:31:09.783Z,12.48
2023-05-14T06:34:11.708Z,11.90
2023-05-14T06:37:13.514Z,12.40
2023-05-14T06:40:16.007Z,12.95
2023-05-14T06:43:17.858Z,13.68
2023-05-14T06:46:19.652Z,12.13
2023-05-14T06:49:25.792Z,11.73
2023-05-14T06:52:27.663Z,11.67
2023-05-14T06:55:32.279Z,13.00
2023-05-14T06:58:34.099Z,13.70
2023-05-14T07:01:36.027Z,12.93
2023-05-14T07:04:41.878Z,12.07
2023-05-14T07:07:43.786Z,12.47
2023-05-14T07:10:45.602Z,13.05
2023-05-14T07:13:47.393Z,12.68
2023-05-14T07:16:49.265Z,12.80
2023-05-14T07:19:55.750Z,14.93
2023-05-14T07:22:57.616Z,14.53
2023-05-14T07:25:59.492Z,11.48
2023-05-14T07:29:01.297Z,11.35
2023-05-14T07:32:03.173Z,13.15
2023-05-14T07:35:10.841Z,13.37
2023-05-14T07:38:12.725Z,12.53
2023-05-14T07:41:14.616Z,10.82
2023-05-14T07:44:16.437Z,12.15
2023-05-14T07:47:18.341Z,10.63
2023-05-14T07:50:20.863Z,10.83
2023-05-14T07:53:23.610Z,12.30
2023-05-14T07:56:25.865Z,11.20
2023-05-14T07:59:27.703Z,11.63
2023-05-14T08:02:29.852Z,11.55
2023-05-14T08:05:33.138Z,11.30
2023-05-14T08:08:35.175Z,10.40
2023-05-14T08:11:37.018Z,11.13
2023-05-14T08:14:39.186Z,10.65
2023-05-14T08:17:41.095Z,12.98
2023-05-14T08:20:43.026Z,12.03
2023-05-14T08:23:45.068Z,12.33
2023-05-14T08:26:46.867Z,10.98
2023-05-14T08:29:48.675Z,9.98
2023-05-14T08:32:50.634Z,11.18
2023-05-14T08:35:56.367Z,10.17
2023-05-14T08:38:58.215Z,13.20
2023-05-14T08:42:00.026Z,12.38
2023-05-14T08:45:02.861Z,11.93
2023-05-14T08:48:09.249Z,12.60
2023-05-14T08:51:11.143Z,13.47
2023-05-14T08:54:15.522Z,14.63
2023-05-14T08:57:17.382Z,13.68
2023-05-14T09:00:19.402Z,12.75
2023-05-14T09:03:21.827Z,10.63
2023-05-14T09:06:23.760Z,12.23
2023-05-14T09:09:26.175Z,12.17
2023-05-14T09:12:28.191Z,14.02
2023-05-14T09:15:30.168Z,13.40
2023-05-14T09:18:32.300Z,11.57
2023-05-14T09:21:34.887Z,10.83
2023-05-14T09:24:39.698Z,12.93
2023-05-14T09:27:41.554Z,13.25
2023-05-14T09:30:44.257Z,12.27
2023-05-14T09:33:50.707Z,12.68
2023-05-14T09:37:02.849Z,12.10
2023-05-14T09:40:09.457Z,13.03
2023-05-14T09:43:11.287Z,13.05
2023-05-14T09:46:13.037Z,12.27
2023-05-14T09:49:17.624Z,14.25
2023-05-14T09:52:19.932Z,13.23
2023-05-14T09:55:21.874Z,15.13
2023-05-14T09:58:23.847Z,13.68
2023-05-14T10:01:25.832Z,13.10
2023-05-14T10:04:27.693Z,12.98
2023-05-14T10:07:42.966Z,14.10
2023-05-14T10:10:44.769Z,15.60
2023-05-14T10:14:18.835Z,12.32
2023-05-14T10:17:22.172Z,14.68
2023-05-14T10:20:24.310Z,13.25
2023-05-14T10:23:26.547Z,13.53
2023-05-14T10:26:28.481Z,12.60
2023-05-14T10:29:37.785Z,12.23
2023-05-14T10:32:42.002Z,14.20
2023-05-14T10:35:57.480Z,12.32
2023-05-14T10:38:59.503Z,14.77
2023-05-14T10:42:01.558Z,13.13
2023-05-14T10:45:07.706Z,12.73
2023-05-14T10:48:09.679Z,14.35
2023-05-14T10:51:12.344Z,15.15
2023-05-14T10:54:14.277Z,12.53
2023-05-14T10:57:16.173Z,13.23
2023-05-14T11:00:18.228Z,12.75
2023-05-14T11:03:20.091Z,15.48
2023-05-14T11:06:21.916Z,14.32
2023-05-14T11:09:23.711Z,13.87
2023-05-14T11:12:25.524Z,14.73
2023-05-14T11:15:28.534Z,14.65
2023-05-14T11:18:31.210Z,12.98
2023-05-14T11:21:33.464Z,15.70
2023-05-14T11:24:35.509Z,14.90
2023-05-14T11:27:38.677Z,14.27
2023-05-14T11:30:40.562Z,15.27
2023-05-14T11:33:42.376Z,14.20
2023-05-14T11:36:44.258Z,13.55
2023-05-14T11:39:50.141Z,14.10
2023-05-14T11:42:53.527Z,15.07
2023-05-14T11:45:55.666Z,14.32
2023-05-14T11:48:57.531Z,14.40
2023-05-14T11:52:03.583Z,15.23
2023-05-14T11:55:06.379Z,17.03
2023-05-14T11:58:08.220Z,13.57
2023-05-14T12:01:10.049Z,14.80
2023-05-14T12:04:11.953Z,15.25
2023-05-14T12:07:15.812Z,13.82
2023-05-14T12:10:17.763Z,15.60
2023-05-14T12:13:20.514Z,10.97
2023-05-14T12:16:22.567Z,11.40
2023-05-14T12:19:26.080Z,11.43
2023-05-14T12:22:28.048Z,11.90
2023-05-14T12:25:30.058Z,11.60
2023-05-14T12:28:32.127Z,11.57
2023-05-14T12:31:34.794Z,11.77
2023-05-14T12:34:37.775Z,10.05
2023-05-14T12:37:40.161Z,9.95
2023-05-14T12:40:42.059Z,9.63
2023-05-14T12:43:44.126Z,10.20
2023-05-14T12:46:46.185Z,10.13
2023-05-14T12:49:48.102Z,10.90
2023-05-14T12:52:50.001Z,9.88
2023-05-14T12:55:51.948Z,8.87
2023-05-14T12:58:57.269Z,9.17
2023-05-14T13:01:59.146Z,8.13
2023-05-14T13:05:03.103Z,9.23
2023-05-14T13:08:05.034Z,9.18
2023-05-14T13:11:06.862Z,11.37
2023-05-14T13:14:08.717Z,10.93
2023-05-14T13:17:10.845Z,8.32
2023-05-14T13:20:12.681Z,9.95
2023-05-14T13:23:15.009Z,9.25
2023-05-14T13:26:19.999Z,9.67
2023-05-14T13:29:21.808Z,11.00
2023-05-14T13:32:23.724Z,9.63
2023-05-14T13:35:26.030Z,10.77
2023-05-14T13:38:28.138Z,9.23
2023-05-14T13:41:30.268Z,8.60
2023-05-14T13:44:32.203Z,9.60
2023-05-14T13:47:34.125Z,8.25
2023-05-14T13:50:35.958Z,9.52
2023-05-14T13:53:39.160Z,9.50
2023-05-14T13:56:40.988Z,9.53
2023-05-14T13:59:42.835Z,11.17
2023-05-14T14:02:44.689Z,10.50
2023-05-14T14:05:46.553Z,10.30
2023-05-14T14:08:48.452Z,11.75
2023-05-14T14:11:54.121Z,12.67
2023-05-14T14:14:56.029Z,10.87
2023-05-14T14:17:57.960Z,11.55
2023-05-14T14:20:59.735Z,10.70
2023-05-14T14:24:02.441Z,11.57
2023-05-14T14:27:08.108Z,11.40
2023-05-14T14:30:16.945Z,10.60
2023-05-14T14:33:18.792Z,9.30
2023-05-14T14:36:20.782Z,10.82
2023-05-14T14:39:25.425Z,10.10
2023-05-14T14:42:27.348Z,10.53
2023-05-14T14:45:29.290Z,10.37
2023-05-14T14:48:34.257Z,13.05
2023-05-14T14:51:36.298Z,10.18
2023-05-14T14:54:38.224Z,11.27
2023-05-14T14:57:40.136Z,10.67
2023-05-14T15:00:42.001Z,10.60
2023-05-14T15:03:45.892Z,11.65
2023-05-14T15:06:47.819Z,10.70
2023-05-14T15:09:49.670Z,11.07
2023-05-14T15:12:54.798Z,10.53
2023-05-14T15:15:56.642Z,10.20
2023-05-14T15:18:58.623Z,11.75
2023-05-14T15:22:00.533Z,9.85
2023-05-14T15:25:02.312Z,10.35
2023-05-14T15:28:08.874Z,10.20
2023-05-14T15:31:10.867Z,9.57
2023-05-14T15:34:12.630Z,9.10
2023-05-14T15:37:14.432Z,11.32
2023-05-14T15:40:16.361Z,11.52
2023-05-14T15:43:18.172Z,10.63
2023-05-14T15:46:21.555Z,10.40
2023-05-14T15:49:23.583Z,9.88
2023-05-14T15:52:26.028Z,9.90
2023-05-14T15:55:27.891Z,10.18
2023-05-14T15:58:34.231Z,11.00
2023-05-14T16:01:36.204Z,10.37
2023-05-14T16:04:38.061Z,9.48
2023-05-14T16:07:39.949Z,11.45
2023-05-14T16:10:41.838Z,11.05
2023-05-14T16:13:47.419Z,11.17
2023-05-14T16:16:49.830Z,11.80
2023-05-14T16:19:53.459Z,10.77
2023-05-14T16:22:57.212Z,10.27
2023-05-14T16:25:59.052Z,10.98
2023-05-14T16:29:00.858Z,11.27
2023-05-14T16:32:02.782Z,9.63
2023-05-14T16:35:04.998Z,11.10
2023-05-14T16:38:06.799Z,12.00
2023-05-14T16:41:10.082Z,11.15
2023-05-14T16:44:16.372Z,12.93
2023-05-14T16:47:18.164Z,10.50
2023-05-14T16:50:20.246Z,12.63
2023-05-14T16:53:22.047Z,11.90
2023-05-14T16:56:24.128Z,10.88
2023-05-14T16:59:30.441Z,10.57
2023-05-14T17:02:33.361Z,12.13
2023-05-14T17:05:35.357Z,10.45
2023-05-14T17:08:37.294Z,11.38
2023-05-14T17:11:39.156Z,12.90
2023-05-14T17:14:45.433Z,12.07
2023-05-14T17:17:47.343Z,11.70
2023-05-14T17:20:49.320Z,10.65
2023-05-14T17:23:51.221Z,10.98
2023-05-14T17:26:53.118Z,12.48
2023-05-14T17:29:54.911Z,12.77
2023-05-14T17:32:56.931Z,12.43
2023-05-14T17:35:58.869Z,12.73
2023-05-14T17:39:00.654Z,11.95
2023-05-14T17:42:03.807Z,11.55
2023-05-14T17:45:09.038Z,12.67
2023-05-14T17:48:10.969Z,11.57
2023-05-14T17:51:12.828Z,13.32
2023-05-14T17:54:15.170Z,13.38
2023-05-14T17:57:17.235Z,12.48
2023-05-14T18:00:22.178Z,13.53
2023-05-14T18:03:24.038Z,14.83
2023-05-14T18:06:25.867Z,13.27
2023-05-14T18:09:27.742Z,12.38
2023-05-14T18:12:29.585Z,14.48
2023-05-14T18:15:35.375Z,13.70
2023-05-14T18:18:37.215Z,13.93
2023-05-14T18:21:39.015Z,11.98
2023-05-14T18:24:40.896Z,12.85
2023-05-14T18:27:45.776Z,10.95
2023-05-14T18:30:49.317Z,10.17
2023-05-14T18:33:51.203Z,11.73
2023-05-14T18:36:53.126Z,12.07
2023-05-14T18:39:55.034Z,12.88
2023-05-14T18:42:57.001Z,10.13
2023-05-14T18:46:01.969Z,12.27
2023-05-14T18:49:03.763Z,13.30
2023-05-14T18:52:06.113Z,15.68
2023-05-14T18:55:08.416Z,12.55
2023-05-14T18:58:10.395Z,13.40
2023-05-14T19:01:15.101Z,12.83
2023-05-14T19:04:17.109Z,12.30
2023-05-14T19:07:19.023Z,13.27
2023-05-14T19:10:21.040Z,14.15
2023-05-14T19:13:23.946Z,13.65
2023-05-14T19:16:26.502Z,12.00
2023-05-14T19:19:28.415Z,12.50
2023-05-14T19:22:30.191Z,14.02
2023-05-14T19:25:32.019Z,13.52
2023-05-14T19:28:33.988Z,12.82
2023-05-14T19:31:39.688Z,12.00
2023-05-14T19:34:41.639Z,12.97
2023-05-14T19:37:43.470Z,12.88
2023-05-14T19:40:45.305Z,12.90
2023-05-14T19:43:47.070Z,12.35
2023-05-14T19:46:48.969Z,11.30
2023-05-14T19:49:51.650Z,10.27
2023-05-14T19:52:53.394Z,11.20
2023-05-14T19:55:56.522Z,10.95
2023-05-14T19:58:58.389Z,13.38
2023-05-14T20:02:00.265Z,12.73
2023-05-14T20:05:02.152Z,13.73
2023-05-14T20:08:06.781Z,13.25
2023-05-14T20:11:08.707Z,11.35
2023-05-14T20:14:10.513Z,12.23
2023-05-14T20:17:12.542Z,12.40
2023-05-14T20:20:14.545Z,11.43
2023-05-14T20:23:16.389Z,11.63
2023-05-14T20:26:18.231Z,12.57
2023-05-14T20:29:20.129Z,9.48
2023-05-14T20:32:25.210Z,12.13
2023-05-14T20:35:27.425Z,14.37
2023-05-14T20:38:31.325Z,13.27
2023-05-14T20:41:33.250Z,12.10
2023-05-14T20:44:35.133Z,12.55
2023-05-14T20:47:37.134Z,13.37
2023-05-14T20:50:38.991Z,11.90
2023-05-14T20:53:40.871Z,13.23
2023-05-14T20:56:42.687Z,11.65
2023-05-14T20:59:45.309Z,9.98
2023-05-14T21:02:47.379Z,11.93
2023-05-14T21:05:49.343Z,11.23
2023-05-14T21:08:51.165Z,11.43
2023-05-14T21:11:53.619Z,11.38
2023-05-14T21:14:55.418Z,12.60
2023-05-14T21:17:57.486Z,11.87
2023-05-14T21:20:59.509Z,12.50
2023-05-14T21:24:01.320Z,14.80
2023-05-14T21:27:03.216Z,13.77
2023-05-14T21:30:05.608Z,13.35
2023-05-14T21:33:07.457Z,13.53
2023-05-14T21:36:09.461Z,14.13
2023-05-14T21:39:11.286Z,13.43
2023-05-14T21:42:13.134Z,11.43
2023-05-14T21:45:15.028Z,14.50
2023-05-14T21:48:16.891Z,12.50
2023-05-14T21:51:18.774Z,13.40
2023-05-14T21:54:21.090Z,12.32
2023-05-14T21:57:23.088Z,14.23
2023-05-14T22:00:25.353Z,13.30
2023-05-14T22:03:27.273Z,13.63
2023-05-14T22:06:29.124Z,13.43
2023-05-14T22:09:30.952Z,11.43
2023-05-14T22:12:32.724Z,11.90
2023-05-14T22:15:34.747Z,14.20
2023-05-14T22:18:36.935Z,12.97
2023-05-14T22:21:38.822Z,11.70
2023-05-14T22:24:40.625Z,11.63
2023-05-14T22:27:42.533Z,14.80
2023-05-14T22:30:44.366Z,14.40
2023-05-14T22:33:46.276Z,13.43
2023-05-14T22:36:48.296Z,13.40
2023-05-14T22:39:50.293Z,12.70
2023-05-14T22:42:52.098Z,13.95
2023-05-14T22:45:53.847Z,12.35
2023-05-14T22:48:55.791Z,11.70
2023-05-14T22:51:57.780Z,12.13
2023-05-14T22:54:59.587Z,11.48
2023-05-14T22:58:01.467Z,12.70
2023-05-14T23:01:03.555Z,13.05
2023-05-14T23:04:05.468Z,14.07
2023-05-14T23:07:07.439Z,13.07
2023-05-14T23:10:09.742Z,12.95
2023-05-14T23:13:11.598Z,13.00
2023-05-14T23:16:13.414Z,13.98
2023-05-14T23:19:15.470Z,14.90
2023-05-14T23:22:17.352Z,12.70
2023-05-14T23:25:19.248Z,18.23
2023-05-14T23:28:20.998Z,12.38
2023-05-14T23:31:23.042Z,13.05
2023-05-14T23:34:24.942Z,15.10
2023-05-14T23:37:26.821Z,12.10
2023-05-14T23:40:28.684Z,14.52
2023-05-14T23:43:30.690Z,14.85
2023-05-14T23:46:32.608Z,13.27
2023-05-14T23:49:35.594Z,13.67
2023-05-14T23:52:38.046Z,16.00
2023-05-14T23:55:39.949Z,16.63
2023-05-14T23:58:41.960Z,15.65
